Time;durP1;ratioP1;P1;durP2;ratioP2;P2;SDS_P1;SDS_P2;PMS_P1;PMS_P2;Temp;Humidity;BMP_temperature;BMP_pressure;BME280_temperature;BME280_humidity;BME280_pressure;Samples;Min_cycle;Max_cycle;Signal;HPM_P1;HPM_P2
2022/10/13 00:03:56;;;;;;;76.40;43.60;;;;;;;2.41;75.48;100827.96;215111;1274;141938;-65
2022/10/13 00:09:00;;;;;;;75.90;44.10;;;;;;;2.42;75.82;100837.36;214829;1273;140045;-64
2022/10/13 00:14:04;;;;;;;67.30;37.50;;;;;;;2.40;75.43;100832.23;214627;1274;141965;-63
2022/10/13 00:19:08;;;;;;;64.10;40.90;;;;;;;2.39;75.73;100829.76;214835;1272;150991;-63
2022/10/13 00:24:18;;;;;;;58.70;34.40;;;;;;;2.30;75.50;100821.94;215732;1274;141345;-64
2022/10/13 00:29:22;;;;;;;58.70;36.70;;;;;;;2.22;75.66;100815.83;215146;1274;139093;-63
2022/10/13 00:34:27;;;;;;;63.50;35.10;;;;;;;2.18;76.05;100818.52;215721;1274;140705;-63
2022/10/13 00:39:31;;;;;;;67.90;34.50;;;;;;;2.19;75.93;100820.48;215040;1274;139915;-63
2022/10/13 00:44:59;;;;;;;58.40;33.00;;;;;;;2.21;76.25;100817.79;214034;1272;141892;-63
2022/10/13 00:50:08;;;;;;;50.90;33.80;;;;;;;2.19;76.11;100817.45;214754;1274;140113;-66
2022/10/13 00:55:17;;;;;;;53.50;29.90;;;;;;;2.12;76.28;100809.52;213962;1274;141520;-62
2022/10/13 01:00:23;;;;;;;39.00;27.40;;;;;;;2.05;76.53;100811.21;214580;1273;142114;-62
2022/10/13 01:05:28;;;;;;;48.70;27.10;;;;;;;2.03;77.01;100805.48;215949;1274;140556;-64
2022/10/13 01:11:07;;;;;;;57.40;32.20;;;;;;;2.01;76.63;100799.64;214137;1274;142253;-62
2022/10/13 01:16:23;;;;;;;53.90;29.20;;;;;;;1.99;76.49;100792.56;215179;1274;142323;-64
2022/10/13 01:21:29;;;;;;;48.70;27.40;;;;;;;2.04;77.00;100782.74;214769;1274;141722;-64
2022/10/13 01:27:08;;;;;;;52.60;31.00;;;;;;;2.06;76.67;100775.14;215196;1274;150965;-64
2022/10/13 01:32:35;;;;;;;45.90;29.90;;;;;;;2.00;76.82;100771.40;216153;1273;141523;-66
2022/10/13 01:38:01;;;;;;;46.60;27.20;;;;;;;2.02;77.06;100766.09;215831;1274;140763;-64
2022/10/13 01:43:24;;;;;;;45.40;24.70;;;;;;;2.09;77.25;100761.70;216081;1274;141498;-64
2022/10/13 01:48:28;;;;;;;35.00;24.40;;;;;;;2.09;76.44;100754.90;216226;1273;142768;-64
2022/10/13 01:53:34;;;;;;;44.90;26.70;;;;;;;2.05;76.50;100746.88;216295;1274;141148;-63
2022/10/13 01:58:39;;;;;;;32.80;21.40;;;;;;;1.95;76.48;100742.56;216230;1274;140866;-64
2022/10/13 02:04:00;;;;;;;48.00;23.30;;;;;;;1.90;76.63;100742.10;216394;1274;140102;-64
2022/10/13 02:09:45;;;;;;;36.30;22.40;;;;;;;1.88;76.81;100735.77;216038;1272;141120;-64
2022/10/13 02:14:50;;;;;;;39.20;24.20;;;;;;;1.85;76.82;100729.84;214026;1276;140779;-63
2022/10/13 02:19:57;;;;;;;35.70;23.00;;;;;;;1.83;77.11;100724.77;215865;1274;140298;-63
2022/10/13 02:25:02;;;;;;;34.50;20.30;;;;;;;1.79;77.00;100724.66;213324;1274;139646;-62
2022/10/13 02:30:08;;;;;;;38.20;22.60;;;;;;;1.75;77.44;100726.14;214095;1274;140226;-62
2022/10/13 02:35:13;;;;;;;33.70;18.00;;;;;;;1.74;77.39;100724.98;213654;1274;140146;-62
2022/10/13 02:40:17;;;;;;;38.10;22.00;;;;;;;1.68;77.42;100725.50;214105;1274;140720;-63
2022/10/13 02:45:22;;;;;;;31.50;21.30;;;;;;;1.64;77.85;100717.28;214324;1274;142156;-62
2022/10/13 02:50:28;;;;;;;35.40;21.10;;;;;;;1.64;77.64;100712.25;214625;1271;140513;-61
2022/10/13 02:55:32;;;;;;;34.00;20.90;;;;;;;1.65;77.56;100712.52;215405;1273;140371;-63
2022/10/13 03:00:38;;;;;;;34.80;20.90;;;;;;;1.67;78.05;100710.94;214902;1273;141095;-62
2022/10/13 03:05:43;;;;;;;30.70;19.10;;;;;;;1.71;78.16;100708.48;214862;1274;140037;-63
2022/10/13 03:10:47;;;;;;;30.30;17.90;;;;;;;1.74;77.78;100716.59;212746;1277;141762;-63
2022/10/13 03:15:53;;;;;;;32.90;19.60;;;;;;;1.78;77.82;100719.36;215877;1272;140568;-63
2022/10/13 03:21:05;;;;;;;30.00;17.50;;;;;;;1.81;78.52;100714.95;215950;1274;141096;-63
2022/10/13 03:26:10;;;;;;;29.10;19.90;;;;;;;1.92;78.10;100716.48;215938;1274;140468;-63
2022/10/13 03:31:14;;;;;;;31.00;18.30;;;;;;;2.04;78.37;100715.44;216198;1272;140447;-62
2022/10/13 03:36:18;;;;;;;27.80;17.40;;;;;;;2.07;78.42;100713.04;216030;1274;139683;-64
2022/10/13 03:41:22;;;;;;;24.90;16.70;;;;;;;2.10;77.98;100714.47;216104;1274;140390;-65
2022/10/13 03:46:28;;;;;;;32.00;16.60;;;;;;;2.03;78.04;100712.68;215920;1274;140128;-65
2022/10/13 03:51:32;;;;;;;24.20;15.50;;;;;;;2.11;78.54;100715.25;215898;1274;139862;-65
2022/10/13 03:56:39;;;;;;;23.90;16.10;;;;;;;2.18;78.46;100713.05;215821;1274;140594;-65
2022/10/13 04:01:44;;;;;;;23.20;15.20;;;;;;;2.30;78.58;100712.39;216023;1274;141133;-65
2022/10/13 04:06:49;;;;;;;23.60;15.30;;;;;;;2.27;77.97;100710.07;215913;1274;139976;-66
2022/10/13 04:11:53;;;;;;;28.70;15.90;;;;;;;2.18;77.80;100706.63;215779;1274;141019;-67
2022/10/13 04:16:57;;;;;;;30.60;16.40;;;;;;;2.18;78.04;100712.41;214897;1272;139642;-65
2022/10/13 04:22:02;;;;;;;23.60;17.20;;;;;;;2.26;78.61;100720.69;214827;1274;140527;-67
2022/10/13 04:27:07;;;;;;;25.50;16.30;;;;;;;2.30;78.08;100717.75;214950;1275;140411;-64
2022/10/13 04:32:11;;;;;;;35.20;17.90;;;;;;;2.21;77.68;100709.91;215879;1274;140192;-64
2022/10/13 04:37:16;;;;;;;30.90;17.60;;;;;;;2.11;77.94;100716.29;215469;1274;140350;-64
2022/10/13 04:42:20;;;;;;;28.00;17.30;;;;;;;2.15;78.80;100714.97;215961;1274;142088;-68
2022/10/13 04:47:23;;;;;;;28.00;16.70;;;;;;;2.15;78.32;100710.73;215225;1272;141420;-66
2022/10/13 04:52:27;;;;;;;32.40;17.50;;;;;;;2.12;77.82;100714.60;215945;1273;141688;-67
2022/10/13 04:57:31;;;;;;;34.50;21.50;;;;;;;2.04;77.61;100714.75;216076;1273;139709;-65
2022/10/13 05:02:35;;;;;;;28.90;15.90;;;;;;;1.95;77.91;100715.31;215922;1274;150707;-66
2022/10/13 05:07:38;;;;;;;20.20;13.10;;;;;;;1.85;77.61;100715.95;215244;1274;140283;-66
2022/10/13 05:12:41;;;;;;;28.80;15.40;;;;;;;1.78;77.72;100711.77;215839;1274;140536;-65
2022/10/13 05:17:46;;;;;;;26.60;15.10;;;;;;;1.77;78.00;100707.66;215976;1274;140374;-66
2022/10/13 05:22:50;;;;;;;20.00;13.20;;;;;;;1.81;77.69;100716.71;215481;1276;140959;-65
2022/10/13 05:27:54;;;;;;;62.00;17.40;;;;;;;1.94;78.53;100719.94;216001;1274;140704;-66
2022/10/13 05:32:58;;;;;;;16.60;12.90;;;;;;;1.99;77.95;100718.50;216136;1274;142477;-64
2022/10/13 05:38:03;;;;;;;27.90;13.70;;;;;;;1.94;77.67;100720.27;216138;1274;141752;-65
2022/10/13 05:43:07;;;;;;;23.70;15.50;;;;;;;1.94;78.42;100716.98;216027;1273;139827;-65
2022/10/13 05:48:12;;;;;;;33.50;17.00;;;;;;;2.05;78.46;100721.50;215140;1274;1039625;-65
2022/10/13 05:53:17;;;;;;;27.20;15.20;;;;;;;2.20;78.94;100723.42;215831;1274;142962;-67
2022/10/13 05:58:22;;;;;;;29.70;18.50;;;;;;;2.34;78.61;100716.52;215672;1274;141291;-68
2022/10/13 06:03:29;;;;;;;25.00;15.10;;;;;;;2.51;79.04;100712.84;215966;1273;142101;-68
2022/10/13 06:08:34;;;;;;;55.00;22.10;;;;;;;2.75;79.60;100710.29;215928;1274;141674;-68
2022/10/13 06:13:38;;;;;;;35.30;19.60;;;;;;;3.02;79.99;100705.39;215853;1274;140042;-68
2022/10/13 06:18:42;;;;;;;26.90;17.80;;;;;;;3.25;79.86;100703.14;215751;1274;140635;-66
2022/10/13 06:23:46;;;;;;;33.00;19.90;;;;;;;3.52;80.34;100705.84;215861;1274;142689;-65
2022/10/13 06:28:50;;;;;;;37.30;18.50;;;;;;;3.84;80.77;100709.31;215780;1274;141743;-67
2022/10/13 06:34:01;;;;;;;36.40;21.40;;;;;;;4.12;80.81;100706.58;216061;1273;140962;-67
2022/10/13 06:39:09;;;;;;;29.60;18.40;;;;;;;4.39;81.11;100708.87;215783;1276;140821;-68
2022/10/13 06:44:13;;;;;;;34.90;21.70;;;;;;;4.72;81.39;100702.44;216043;1274;140932;-67
2022/10/13 06:49:22;;;;;;;30.70;19.00;;;;;;;5.09;81.29;100700.94;215928;1274;140212;-68
2022/10/13 06:54:26;;;;;;;31.90;16.60;;;;;;;5.81;81.84;100690.85;215758;1274;141372;-68
2022/10/13 06:59:30;;;;;;;22.20;13.30;;;;;;;7.30;81.65;100682.35;216023;1274;141711;-68
2022/10/13 07:04:33;;;;;;;27.30;13.60;;;;;;;9.01;81.39;100674.75;215992;1274;140452;-66
2022/10/13 07:09:37;;;;;;;19.90;12.60;;;;;;;10.63;79.73;100668.16;216224;1274;140012;-66
2022/10/13 07:14:40;;;;;;;24.30;13.00;;;;;;;11.96;77.81;100653.90;216011;1274;140452;-66
2022/10/13 07:19:47;;;;;;;20.90;10.10;;;;;;;12.91;76.22;100653.30;215846;1274;141477;-66
2022/10/13 07:24:50;;;;;;;18.60;11.60;;;;;;;13.61;74.98;100656.19;215909;1274;141076;-65
2022/10/13 07:29:54;;;;;;;13.00;8.70;;;;;;;14.07;73.10;100656.16;215801;1274;164571;-68
2022/10/13 07:34:59;;;;;;;20.50;9.60;;;;;;;14.23;71.75;100657.91;215904;1274;141154;-67
2022/10/13 07:40:04;;;;;;;15.80;10.10;;;;;;;14.21;70.37;100653.24;215976;1274;140879;-67
2022/10/13 07:45:09;;;;;;;14.60;8.90;;;;;;;14.14;70.02;100648.91;216092;1274;140717;-65
2022/10/13 07:50:14;;;;;;;17.90;10.50;;;;;;;14.17;69.20;100641.14;216072;1274;140508;-65
2022/10/13 07:55:18;;;;;;;12.60;9.50;;;;;;;14.10;68.40;100631.71;215994;1274;140702;-66
2022/10/13 08:00:22;;;;;;;18.10;9.80;;;;;;;13.94;67.50;100631.08;216077;1273;139794;-65
2022/10/13 08:05:28;;;;;;;15.00;7.80;;;;;;;13.96;67.38;100634.06;216102;1274;140141;-65
2022/10/13 08:10:32;;;;;;;13.90;8.60;;;;;;;13.74;66.06;100626.81;215945;1273;140627;-65
2022/10/13 08:15:43;;;;;;;14.80;8.10;;;;;;;13.59;66.12;100623.25;216103;1274;139913;-65
2022/10/13 08:20:47;;;;;;;13.70;7.60;;;;;;;13.57;65.63;100622.14;216248;1272;140105;-66
2022/10/13 08:25:52;;;;;;;10.20;6.70;;;;;;;13.71;66.12;100622.88;216201;1274;140383;-66
2022/10/13 08:30:56;;;;;;;14.60;7.90;;;;;;;13.96;65.61;100621.19;215597;1274;140525;-66
2022/10/13 08:36:00;;;;;;;8.20;5.90;;;;;;;14.09;65.10;100622.16;216164;1274;141707;-67
2022/10/13 08:41:18;;;;;;;9.60;7.00;;;;;;;14.10;64.74;100615.42;216107;1273;141790;-66
2022/10/13 08:47:13;;;;;;;18.20;8.30;;;;;;;14.38;64.75;100610.91;215944;1274;162237;-67
2022/10/13 08:52:21;;;;;;;10.40;7.10;;;;;;;14.65;64.53;100601.73;216124;1273;140876;-68
2022/10/13 08:57:25;;;;;;;11.00;5.40;;;;;;;14.69;63.18;100587.27;215987;1274;140832;-67
2022/10/13 09:02:30;;;;;;;15.00;7.30;;;;;;;14.62;62.41;100580.66;215846;1274;142016;-68
2022/10/13 09:07:36;;;;;;;7.10;5.10;;;;;;;14.75;63.07;100571.52;215805;1274;141139;-71
2022/10/13 09:12:40;;;;;;;11.90;4.80;;;;;;;15.02;62.25;100572.69;216202;1274;205003;-69
2022/10/13 09:17:44;;;;;;;8.50;4.90;;;;;;;14.91;60.73;100573.05;215885;1274;139665;-68
2022/10/13 09:23:02;;;;;;;11.70;5.50;;;;;;;14.93;60.55;100575.13;215545;1272;140815;-67
2022/10/13 09:28:15;;;;;;;8.40;5.50;;;;;;;15.05;61.02;100570.38;215482;1274;140804;-68
2022/10/13 09:33:23;;;;;;;7.80;5.50;;;;;;;15.27;60.33;100563.31;213315;1274;139776;-67
2022/10/13 09:38:28;;;;;;;;;;;;;;;15.40;59.97;100550.73;215971;1274;139741;-68
2022/10/13 09:43:33;;;;;;;6.10;4.20;;;;;;;15.54;59.86;100553.09;213462;1274;127494;-67
2022/10/13 09:48:41;;;;;;;5.90;4.30;;;;;;;15.64;58.73;100555.02;215953;1273;210650;-68
2022/10/13 09:53:46;;;;;;;11.40;5.40;;;;;;;15.78;58.77;100541.40;216139;1274;139649;-68
2022/10/13 09:58:57;;;;;;;8.90;3.90;;;;;;;15.87;57.75;100532.22;215928;1273;140077;-69
2022/10/13 10:04:10;;;;;;;10.20;3.60;;;;;;;15.90;57.29;100536.28;215902;1274;140725;-68
2022/10/13 10:09:32;;;;;;;5.50;3.80;;;;;;;15.97;56.99;100534.95;216224;1274;142213;-67
2022/10/13 10:14:38;;;;;;;9.30;5.40;;;;;;;16.12;56.76;100535.69;216170;1274;141709;-67
2022/10/13 10:19:50;;;;;;;5.60;4.20;;;;;;;16.27;56.83;100533.31;216224;1274;141910;-66
2022/10/13 10:25:11;;;;;;;4.70;4.30;;;;;;;16.52;56.57;100523.17;215912;1274;140836;-68
2022/10/13 10:30:18;;;;;;;4.00;3.10;;;;;;;16.59;55.89;100508.49;216058;1273;141570;-66
2022/10/13 10:35:25;;;;;;;11.30;4.60;;;;;;;16.71;55.68;100508.76;214455;1274;142219;-67
2022/10/13 10:40:44;;;;;;;5.80;4.00;;;;;;;16.83;55.15;100507.77;215890;1274;140337;-66
2022/10/13 10:45:48;;;;;;;9.10;5.20;;;;;;;16.96;54.98;100503.40;216123;1274;141095;-66
2022/10/13 10:50:53;;;;;;;15.30;4.80;;;;;;;16.97;54.07;100491.83;215915;1272;139880;-68
2022/10/13 10:56:03;;;;;;;6.40;3.70;;;;;;;16.98;54.21;100487.69;215613;1271;141776;-67
2022/10/13 11:01:11;;;;;;;7.30;4.50;;;;;;;17.08;53.94;100488.36;215470;1275;140733;-67
2022/10/13 11:06:15;;;;;;;6.50;5.00;;;;;;;17.06;53.34;100485.91;214162;1274;140473;-67
2022/10/13 11:11:21;;;;;;;4.90;3.80;;;;;;;16.85;52.96;100484.30;215906;1272;140912;-67
2022/10/13 11:16:38;;;;;;;9.00;4.80;;;;;;;16.73;53.18;100482.39;214610;1274;141000;-67
2022/10/13 11:21:58;;;;;;;22.90;5.50;;;;;;;16.72;53.29;100476.61;215541;1274;140074;-66
2022/10/13 11:27:10;;;;;;;9.10;5.00;;;;;;;16.73;53.40;100473.08;215760;1274;140185;-65
2022/10/13 11:37:57;;;;;;;5.90;4.50;;;;;;;17.01;53.41;100461.38;215974;1274;150908;-66
2022/10/13 11:43:18;;;;;;;4.50;3.80;;;;;;;17.18;53.28;100458.08;215640;1273;140337;-66
2022/10/13 11:48:49;;;;;;;10.10;5.30;;;;;;;17.11;52.54;100450.50;216000;1274;141906;-67
2022/10/13 11:54:22;;;;;;;9.70;5.00;;;;;;;17.09;52.54;100438.53;215993;1274;140567;-65
2022/10/13 11:59:33;;;;;;;8.80;4.20;;;;;;;17.09;51.79;100432.48;215682;1274;140027;-66
2022/10/13 12:04:39;;;;;;;5.30;4.50;;;;;;;16.98;52.21;100426.23;215349;1273;139694;-64
2022/10/13 12:09:53;;;;;;;6.40;4.10;;;;;;;17.12;52.30;100417.46;216015;1273;141020;-66
2022/10/13 12:14:57;;;;;;;4.70;4.20;;;;;;;17.17;51.97;100409.41;216002;1274;139909;-66
2022/10/13 12:20:30;;;;;;;6.10;4.70;;;;;;;17.18;51.72;100401.92;215740;1274;139558;-67
2022/10/13 12:25:35;;;;;;;3.70;3.40;;;;;;;17.26;52.09;100399.81;215963;1273;139874;-67
2022/10/13 12:30:43;;;;;;;7.80;5.30;;;;;;;17.25;51.61;100394.10;215999;1274;142872;-65
2022/10/13 12:35:47;;;;;;;6.90;3.90;;;;;;;17.25;51.22;100391.03;215967;1273;143918;-65
2022/10/13 12:40:53;;;;;;;8.00;4.00;;;;;;;17.09;51.02;100384.48;216001;1274;139532;-65
2022/10/13 12:45:57;;;;;;;11.60;4.80;;;;;;;16.99;51.28;100379.11;215988;1274;140738;-64
2022/10/13 12:51:22;;;;;;;6.40;5.80;;;;;;;17.02;51.22;100370.34;216168;1273;139733;-64
2022/10/13 12:56:30;;;;;;;10.10;5.70;;;;;;;16.93;50.82;100365.48;214297;1272;141258;-64
2022/10/13 13:01:34;;;;;;;14.50;4.70;;;;;;;16.90;50.97;100363.64;215589;1274;140422;-64
2022/10/13 13:06:53;;;;;;;5.90;4.80;;;;;;;16.93;51.07;100357.73;213045;1274;232208;-66
2022/10/13 13:12:10;;;;;;;6.90;4.00;;;;;;;16.80;50.79;100356.38;215861;1274;142542;-67
2022/10/13 13:17:22;;;;;;;5.20;3.80;;;;;;;16.67;50.85;100350.11;216001;1274;140279;-67
2022/10/13 13:22:49;;;;;;;8.40;4.50;;;;;;;16.62;50.78;100341.88;215807;1274;140086;-67
2022/10/13 13:27:54;;;;;;;14.80;5.30;;;;;;;16.54;51.01;100335.66;216031;1272;139656;-67
2022/10/13 13:32:58;;;;;;;5.70;4.50;;;;;;;16.45;50.86;100326.09;215710;1274;139725;-66
2022/10/13 13:38:04;;;;;;;9.30;5.50;;;;;;;16.28;50.82;100324.49;215761;1274;139673;-68
2022/10/13 13:43:08;;;;;;;8.50;4.70;;;;;;;16.20;51.02;100323.80;214943;1273;139693;-67
2022/10/13 13:48:13;;;;;;;8.70;5.90;;;;;;;16.09;51.20;100325.77;214877;1274;140876;-68
2022/10/13 13:53:17;;;;;;;7.80;5.50;;;;;;;16.06;51.38;100325.41;214630;1274;139875;-67
2022/10/13 13:58:22;;;;;;;8.80;4.40;;;;;;;16.05;51.58;100322.55;215918;1274;140902;-69
2022/10/13 14:03:27;;;;;;;9.40;5.40;;;;;;;16.04;51.65;100321.15;216084;1272;140033;-67
2022/10/13 14:08:33;;;;;;;5.90;4.90;;;;;;;16.04;51.80;100318.52;216096;1274;139983;-66
2022/10/13 14:13:38;;;;;;;;;;;;;;;15.99;51.81;100314.92;215925;1272;140418;-72
2022/10/13 14:18:43;;;;;;;12.30;5.60;;;;;;;15.81;51.93;100316.11;216732;1272;127615;-68
2022/10/13 14:23:47;;;;;;;5.90;4.40;;;;;;;15.78;52.22;100316.25;215859;1274;140027;-67
2022/10/13 14:28:53;;;;;;;6.20;4.60;;;;;;;15.78;52.36;100316.79;216046;1274;139638;-66
2022/10/13 14:33:57;;;;;;;6.10;5.50;;;;;;;15.74;52.62;100315.39;215818;1274;140492;-68
2022/10/13 14:39:01;;;;;;;10.50;5.40;;;;;;;15.65;52.64;100312.13;215870;1275;140441;-66
2022/10/13 14:44:05;;;;;;;10.50;6.10;;;;;;;15.51;52.84;100307.41;214647;1274;141012;-67
2022/10/13 14:49:10;;;;;;;14.50;7.00;;;;;;;15.42;53.31;100307.29;215731;1274;142157;-68
2022/10/13 14:54:15;;;;;;;17.60;7.70;;;;;;;15.34;53.54;100305.38;216059;1272;140307;-67
2022/10/13 14:59:19;;;;;;;6.90;6.10;;;;;;;15.20;53.73;100305.02;215729;1274;140816;-67
2022/10/13 15:04:24;;;;;;;8.10;6.30;;;;;;;15.05;53.83;100304.30;216087;1274;140562;-66
2022/10/13 15:09:28;;;;;;;10.00;6.50;;;;;;;14.91;54.12;100304.28;216003;1274;140733;-66
2022/10/13 15:14:52;;;;;;;11.50;6.40;;;;;;;14.79;54.71;100298.70;215915;1274;139947;-66
2022/10/13 15:19:57;;;;;;;18.40;9.10;;;;;;;14.63;54.92;100297.90;214116;1272;139788;-66
2022/10/13 15:25:03;;;;;;;13.40;7.50;;;;;;;14.46;55.50;100295.67;215039;1272;141359;-67
2022/10/13 15:30:08;;;;;;;16.10;8.30;;;;;;;14.25;56.06;100292.92;216050;1274;140805;-68
2022/10/13 15:35:13;;;;;;;14.70;8.80;;;;;;;14.03;56.69;100290.38;216105;1274;139952;-69
2022/10/13 15:40:17;;;;;;;15.60;7.40;;;;;;;13.78;57.16;100285.47;216036;1274;150618;-68
2022/10/13 15:45:22;;;;;;;9.00;7.00;;;;;;;13.54;57.45;100279.79;216110;1274;140387;-69
2022/10/13 15:50:30;;;;;;;12.50;7.10;;;;;;;13.27;57.75;100275.77;215993;1272;140019;-66
2022/10/13 15:55:34;;;;;;;9.40;6.60;;;;;;;12.98;58.17;100272.65;216061;1274;141072;-68
2022/10/13 16:00:39;;;;;;;11.30;6.90;;;;;;;12.73;59.02;100268.98;215872;1274;139937;-67
2022/10/13 16:05:48;;;;;;;11.80;7.40;;;;;;;12.48;59.09;100275.23;215700;1274;142399;-70
2022/10/13 16:10:55;;;;;;;13.10;8.90;;;;;;;12.24;59.76;100275.98;215864;1273;141014;-69
2022/10/13 16:16:00;;;;;;;12.30;8.00;;;;;;;12.04;60.14;100278.70;216073;1274;140242;-70
2022/10/13 16:21:12;;;;;;;11.10;6.40;;;;;;;11.83;60.37;100276.76;215972;1273;140168;-70
2022/10/13 16:26:21;;;;;;;19.00;8.40;;;;;;;11.62;60.41;100275.93;215961;1273;142350;-68
2022/10/13 16:31:25;;;;;;;12.20;8.10;;;;;;;11.40;60.97;100268.89;216054;1274;141052;-67
2022/10/13 16:36:29;;;;;;;10.40;7.70;;;;;;;11.16;61.02;100267.14;215940;1274;139927;-68
2022/10/13 16:41:33;;;;;;;11.40;7.40;;;;;;;10.90;61.48;100265.05;216096;1272;139912;-69
2022/10/13 16:46:37;;;;;;;13.70;8.40;;;;;;;10.68;61.75;100265.26;215903;1274;141283;-69
2022/10/13 16:51:41;;;;;;;14.10;9.00;;;;;;;10.45;62.13;100262.17;216081;1273;140345;-70
2022/10/13 16:56:45;;;;;;;18.90;11.00;;;;;;;10.29;62.83;100256.85;215932;1274;140300;-69
2022/10/13 17:01:50;;;;;;;28.50;13.00;;;;;;;10.21;63.22;100257.86;215775;1274;140986;-70
2022/10/13 17:06:58;;;;;;;33.40;14.80;;;;;;;10.19;63.63;100257.00;215821;1274;142393;-69
2022/10/13 17:12:02;;;;;;;19.40;11.10;;;;;;;10.19;63.95;100262.26;215763;1272;140711;-69
2022/10/13 17:17:07;;;;;;;16.00;11.60;;;;;;;10.15;64.12;100260.05;214619;1274;141651;-67
2022/10/13 17:22:11;;;;;;;21.40;11.50;;;;;;;10.10;64.48;100258.09;215670;1274;141404;-68
2022/10/13 17:27:16;;;;;;;18.20;9.60;;;;;;;10.01;64.51;100254.79;214972;1274;140415;-68
2022/10/13 17:32:21;;;;;;;17.20;10.30;;;;;;;9.91;64.38;100250.65;214493;1274;140800;-67
2022/10/13 17:37:25;;;;;;;17.40;11.90;;;;;;;9.84;64.73;100249.05;214010;1274;141083;-66
2022/10/13 17:42:30;;;;;;;23.20;12.40;;;;;;;9.78;65.11;100249.56;215473;1274;141101;-66
2022/10/13 17:47:34;;;;;;;23.60;14.80;;;;;;;9.74;65.29;100245.83;212618;1274;832803;-65
2022/10/13 17:52:40;;;;;;;26.60;15.50;;;;;;;9.70;65.46;100244.19;215818;1274;140602;-68
2022/10/13 17:57:44;;;;;;;20.50;13.60;;;;;;;9.63;65.67;100240.87;213805;1274;140725;-67
2022/10/13 18:02:49;;;;;;;19.90;14.60;;;;;;;9.60;65.63;100240.23;216138;1274;140101;-68
2022/10/13 18:07:56;;;;;;;21.00;14.70;;;;;;;9.53;66.00;100237.66;216059;1274;141341;-67
2022/10/13 18:13:00;;;;;;;28.20;15.40;;;;;;;9.48;66.03;100242.73;214458;1274;141405;-68
2022/10/13 18:18:04;;;;;;;27.60;15.20;;;;;;;9.40;66.14;100241.52;215306;1272;142780;-66
2022/10/13 18:23:09;;;;;;;26.70;18.30;;;;;;;9.33;66.45;100240.91;215854;1274;140079;-69
2022/10/13 18:28:12;;;;;;;34.70;17.80;;;;;;;9.27;66.57;100244.10;215859;1273;141036;-68
2022/10/13 18:33:17;;;;;;;27.90;16.30;;;;;;;9.20;66.50;100240.01;215846;1274;139979;-67
2022/10/13 18:38:23;;;;;;;29.40;17.80;;;;;;;9.11;66.52;100240.80;215665;1276;142400;-66
2022/10/13 18:43:29;;;;;;;26.80;18.80;;;;;;;9.02;66.61;100236.55;215824;1274;141012;-66
2022/10/13 18:48:34;;;;;;;36.50;21.20;;;;;;;8.90;66.75;100235.73;215804;1274;141413;-67
2022/10/13 18:53:40;;;;;;;42.20;21.90;;;;;;;8.82;66.93;100235.26;215865;1274;140069;-69
2022/10/13 18:58:46;;;;;;;40.00;26.50;;;;;;;8.76;67.20;100230.11;215898;1274;141015;-68
2022/10/13 19:03:52;;;;;;;37.90;22.50;;;;;;;8.77;67.38;100229.54;215957;1274;141613;-67
2022/10/13 19:09:07;;;;;;;40.40;23.90;;;;;;;8.75;67.41;100222.89;214315;1274;140399;-68
2022/10/13 19:14:13;;;;;;;45.90;26.10;;;;;;;8.72;67.84;100219.73;215968;1274;141527;-68
2022/10/13 19:19:19;;;;;;;46.40;25.40;;;;;;;8.67;67.92;100217.05;212903;1274;139925;-68
2022/10/13 19:24:25;;;;;;;33.90;22.50;;;;;;;8.64;68.23;100219.69;214175;1274;141433;-67
2022/10/13 19:29:31;;;;;;;50.00;24.60;;;;;;;8.59;68.22;100218.44;215704;1274;140836;-67
2022/10/13 19:34:37;;;;;;;37.40;26.00;;;;;;;8.53;68.79;100214.14;215499;1273;140694;-67
2022/10/13 19:39:45;;;;;;;48.90;26.50;;;;;;;8.45;68.49;100207.01;214778;1274;140091;-68
2022/10/13 19:45:03;;;;;;;42.30;25.50;;;;;;;8.37;68.80;100202.40;214467;1274;140226;-68
2022/10/13 19:50:09;;;;;;;42.00;27.80;;;;;;;8.33;69.09;100203.17;215988;1273;142018;-69
2022/10/13 19:55:16;;;;;;;40.60;24.00;;;;;;;8.32;69.40;100204.03;216001;1274;139903;-67
2022/10/13 20:00:21;;;;;;;49.20;28.00;;;;;;;8.33;69.49;100202.62;214860;1274;141105;-65
2022/10/13 20:05:26;;;;;;;42.50;25.20;;;;;;;8.31;69.53;100201.83;215938;1274;150905;-68
2022/10/13 20:10:33;;;;;;;37.70;27.80;;;;;;;8.26;69.89;100200.04;215516;1274;140921;-68
2022/10/13 20:15:40;;;;;;;35.00;22.90;;;;;;;8.20;70.09;100199.41;215965;1274;141587;-68
2022/10/13 20:20:44;;;;;;;36.00;24.30;;;;;;;8.14;70.34;100197.52;216109;1273;139921;-69
2022/10/13 20:25:48;;;;;;;40.50;24.60;;;;;;;8.12;71.06;100196.48;216034;1274;141029;-68
2022/10/13 20:30:52;;;;;;;44.50;26.00;;;;;;;8.15;70.56;100197.50;215816;1274;140839;-67
2022/10/13 20:36:11;;;;;;;49.40;26.20;;;;;;;8.20;70.90;100197.20;215837;1274;155172;-67
2022/10/13 20:41:19;;;;;;;39.00;24.10;;;;;;;8.19;71.08;100193.70;216085;1274;141180;-69
2022/10/13 20:46:24;;;;;;;39.00;19.40;;;;;;;8.21;71.64;100185.35;216037;1274;142348;-69
2022/10/13 20:51:29;;;;;;;48.50;28.60;;;;;;;8.18;71.98;100184.87;216019;1274;141690;-69
2022/10/13 20:56:33;;;;;;;36.20;25.80;;;;;;;8.16;71.91;100182.79;215952;1274;142195;-69
2022/10/13 21:01:39;;;;;;;39.10;23.50;;;;;;;8.18;71.99;100183.48;216088;1274;142012;-70
2022/10/13 21:06:44;;;;;;;30.90;20.30;;;;;;;8.17;72.15;100180.54;216044;1274;140782;-65
2022/10/13 21:11:49;;;;;;;40.90;24.10;;;;;;;8.18;72.48;100178.33;216065;1274;140542;-68
2022/10/13 21:16:54;;;;;;;45.60;27.60;;;;;;;8.21;72.58;100175.95;214034;1274;140642;-66
2022/10/13 21:21:58;;;;;;;52.60;28.20;;;;;;;8.20;72.38;100172.85;215867;1274;143929;-67
2022/10/13 21:27:02;;;;;;;42.10;23.40;;;;;;;8.17;72.54;100167.05;216048;1274;141102;-68
2022/10/13 21:32:06;;;;;;;42.70;26.10;;;;;;;8.12;72.29;100169.77;215197;1274;140849;-65
2022/10/13 21:37:10;;;;;;;50.20;25.70;;;;;;;8.07;72.51;100165.44;215925;1272;141098;-68
2022/10/13 21:42:15;;;;;;;34.40;21.00;;;;;;;8.06;72.84;100163.81;216072;1274;140463;-67
2022/10/13 21:47:20;;;;;;;32.50;22.80;;;;;;;8.05;72.80;100162.75;214855;1274;144363;-68
2022/10/13 21:52:26;;;;;;;38.30;22.10;;;;;;;7.97;72.66;100160.42;216065;1274;142826;-68
2022/10/13 21:57:30;;;;;;;37.00;23.20;;;;;;;7.91;72.91;100155.20;216183;1274;141492;-69
2022/10/13 22:02:34;;;;;;;29.50;20.90;;;;;;;7.88;73.21;100156.75;216141;1274;141764;-67
2022/10/13 22:07:38;;;;;;;38.70;22.90;;;;;;;7.87;73.37;100147.96;215866;1274;141783;-67
2022/10/13 22:12:43;;;;;;;42.80;25.80;;;;;;;7.89;73.49;100148.66;214487;1274;141238;-65
2022/10/13 22:17:47;;;;;;;39.40;22.90;;;;;;;7.88;73.36;100144.86;214542;1274;140951;-67
2022/10/13 22:22:51;;;;;;;36.60;23.10;;;;;;;7.86;73.59;100139.72;215893;1274;229473;-68
2022/10/13 22:27:56;;;;;;;39.70;27.20;;;;;;;7.85;73.73;100137.19;215853;1274;139896;-66
2022/10/13 22:33:00;;;;;;;45.60;25.90;;;;;;;7.86;74.18;100134.17;216010;1274;141314;-67
2022/10/13 22:38:04;;;;;;;41.80;25.30;;;;;;;7.92;73.82;100132.69;216062;1274;143004;-68
2022/10/13 22:43:08;;;;;;;40.90;25.10;;;;;;;7.96;74.14;100130.61;216095;1274;142152;-68
2022/10/13 22:48:12;;;;;;;30.60;22.40;;;;;;;8.00;74.05;100131.54;215984;1274;151161;-67
2022/10/13 22:53:16;;;;;;;36.40;24.80;;;;;;;7.99;74.05;100126.56;216180;1274;141214;-69
2022/10/13 22:58:21;;;;;;;37.60;25.20;;;;;;;7.97;74.02;100126.92;216100;1274;141142;-69
2022/10/13 23:03:25;;;;;;;36.90;24.70;;;;;;;7.94;73.60;100125.76;216030;1274;140487;-71
2022/10/13 23:08:30;;;;;;;35.90;25.00;;;;;;;7.89;73.85;100126.48;215903;1274;141044;-67
2022/10/13 23:13:34;;;;;;;41.70;23.90;;;;;;;7.82;73.90;100128.29;215970;1274;141291;-68